Time;durP1;ratioP1;P1;durP2;ratioP2;P2;SDS_P1;SDS_P2;PMS_P1;PMS_P2;Temp;Humidity;BMP_temperature;BMP_pressure;BME280_temperature;BME280_humidity;BME280_pressure;Samples;Min_cycle;Max_cycle;Signal;HPM_P1;HPM_P2
2022/06/14 00:02:39;;;;;;;3.45;2.22;;;;;;;16.62;59.11;99982.25;7657109;32;39306;-70
2022/06/14 00:06:55;;;;;;;5.72;3.00;;;;;;;16.39;59.58;99989.59;7657187;32;40739;-70
2022/06/14 00:11:22;;;;;;;4.53;2.95;;;;;;;16.56;58.79;100015.66;7657430;32;37960;-70
2022/06/14 00:15:39;;;;;;;6.05;2.80;;;;;;;16.85;57.99;100021.72;7660220;32;37961;-71
2022/06/14 00:19:55;;;;;;;5.32;2.90;;;;;;;16.58;58.89;100025.25;7659943;32;40002;-70
2022/06/14 00:24:13;;;;;;;4.53;3.28;;;;;;;16.39;59.37;100016.31;7660207;32;39668;-70
2022/06/14 00:28:32;;;;;;;5.53;3.00;;;;;;;16.30;59.78;100041.75;7659936;32;38095;-70
2022/06/14 00:32:48;;;;;;;4.57;3.03;;;;;;;16.41;59.39;100055.34;7660023;32;37731;-70
2022/06/14 00:37:13;;;;;;;3.87;3.00;;;;;;;16.06;60.55;100061.19;7660068;32;39797;-70
2022/06/14 00:41:54;;;;;;;6.32;2.83;;;;;;;16.24;59.75;100070.47;7660069;32;40603;-70
2022/06/14 00:46:20;;;;;;;6.15;3.20;;;;;;;16.09;60.05;100060.59;7659571;32;38883;-71
2022/06/14 00:51:11;;;;;;;9.27;3.45;;;;;;;16.37;58.86;100046.87;7659791;32;37047;-70
2022/06/14 00:55:33;;;;;;;6.22;3.75;;;;;;;16.33;58.98;100051.34;7659770;32;39023;-70
2022/06/14 00:59:57;;;;;;;7.27;3.57;;;;;;;16.27;59.07;100060.81;7646483;32;39946;-70
2022/06/14 01:04:19;;;;;;;11.32;3.25;;;;;;;16.23;59.28;100068.88;7646879;32;37931;-70
2022/06/14 01:08:46;;;;;;;5.37;3.12;;;;;;;16.23;59.35;100073.53;7646542;32;36869;-70
2022/06/14 01:13:04;;;;;;;11.90;4.18;;;;;;;16.32;58.66;100078.03;7646892;32;40146;-70
2022/06/14 01:17:20;;;;;;;4.90;2.87;;;;;;;15.91;59.93;100097.19;7645654;32;39916;-70
2022/06/14 01:21:36;;;;;;;7.10;3.35;;;;;;;16.25;58.87;100093.31;7645871;32;37798;-70
2022/06/14 01:26:24;;;;;;;6.50;3.50;;;;;;;16.34;58.81;100084.03;7659393;32;37005;-69
2022/06/14 01:30:45;;;;;;;5.72;3.20;;;;;;;16.25;59.49;100085.06;7647293;32;39336;-70
2022/06/14 01:35:06;;;;;;;5.03;3.05;;;;;;;16.13;59.53;100078.09;7659265;32;39932;-69
2022/06/14 01:39:22;;;;;;;6.07;3.30;;;;;;;16.46;58.44;100083.56;7659189;32;38665;-70
2022/06/14 01:44:08;;;;;;;4.57;3.33;;;;;;;16.41;58.76;100086.41;7645658;32;37061;-70
2022/06/14 01:48:32;;;;;;;8.75;3.15;;;;;;;16.24;58.98;100099.94;7646729;32;40106;-70
2022/06/14 01:53:09;;;;;;;8.32;3.37;;;;;;;16.26;58.77;100111.44;7658529;32;40798;-70
2022/06/14 01:57:38;;;;;;;7.45;3.50;;;;;;;16.09;59.35;100112.84;7658995;32;38131;-70
2022/06/14 02:02:00;;;;;;;7.10;3.70;;;;;;;16.13;59.16;100108.34;7645368;32;37234;-70
2022/06/14 02:06:33;;;;;;;7.55;3.62;;;;;;;16.05;59.67;100108.22;7658678;32;40065;-70
2022/06/14 02:11:18;;;;;;;5.43;3.17;;;;;;;16.03;59.65;100103.03;7659105;32;39916;-70
2022/06/14 02:15:52;;;;;;;5.93;3.50;;;;;;;16.00;59.52;100108.31;7654880;32;37776;-71
2022/06/14 02:20:16;;;;;;;4.90;3.28;;;;;;;16.03;59.09;100114.03;7646514;32;37268;-70
2022/06/14 02:24:37;;;;;;;;;;;;;;;16.10;58.79;100121.91;7646138;32;40052;-70
2022/06/14 02:29:24;;;;;;;5.78;3.55;;;;;;;16.04;58.91;100121.16;7658947;32;39941;-70
2022/06/14 02:33:49;;;;;;;5.18;3.03;;;;;;;15.89;59.38;100122.22;7658006;32;38153;-70
2022/06/14 02:38:35;;;;;;;5.68;3.22;;;;;;;15.81;59.61;100122.09;7658675;32;37824;-70
2022/06/14 02:43:03;;;;;;;5.60;2.85;;;;;;;15.89;59.38;100135.16;7658519;32;40012;-69
2022/06/14 02:47:33;;;;;;;4.70;3.28;;;;;;;16.19;57.92;100141.28;7645293;32;40741;-70
2022/06/14 02:51:59;;;;;;;8.95;3.40;;;;;;;16.27;57.52;100146.91;7658383;32;37894;-70
2022/06/14 02:56:25;;;;;;;7.93;3.50;;;;;;;16.18;57.69;100136.88;7645784;32;37027;-70
2022/06/14 03:00:53;;;;;;;9.50;3.65;;;;;;;16.15;57.79;100122.63;7658275;32;39300;-70
2022/06/14 03:05:17;;;;;;;5.72;3.05;;;;;;;15.65;59.43;100141.53;7645597;32;40692;-70
2022/06/14 03:09:36;;;;;;;8.25;3.00;;;;;;;15.54;60.14;100140.06;7645356;32;38039;-70
2022/06/14 03:14:05;;;;;;;5.10;3.08;;;;;;;15.55;60.47;100142.47;7658026;32;36082;-70
2022/06/14 03:18:49;;;;;;;5.30;3.33;;;;;;;15.59;60.62;100142.69;7657602;32;39296;-70
2022/06/14 03:23:21;;;;;;;4.43;3.03;;;;;;;15.69;60.36;100147.25;7657975;32;39842;-70
2022/06/14 03:28:01;;;;;;;6.47;3.60;;;;;;;15.80;60.06;100134.19;7657839;32;38681;-70
2022/06/14 03:32:25;;;;;;;5.25;3.37;;;;;;;15.74;60.05;100153.47;7657802;32;36828;-70
2022/06/14 03:36:41;;;;;;;7.43;3.25;;;;;;;15.48;61.56;100168.69;7644898;32;40043;-70
2022/06/14 03:40:57;;;;;;;7.82;3.30;;;;;;;15.62;60.61;100161.34;7644135;32;39954;-70
2022/06/14 03:45:17;;;;;;;4.15;3.15;;;;;;;15.46;61.34;100165.44;7656361;32;37738;-70
2022/06/14 03:49:34;;;;;;;7.45;3.85;;;;;;;15.48;60.96;100176.94;7644335;32;37233;-70
2022/06/14 03:54:28;;;;;;;5.75;3.40;;;;;;;15.43;61.15;100188.00;7657359;32;39356;-70
2022/06/14 03:59:00;;;;;;;;;;;;;;;15.46;61.21;100193.72;7657548;32;40915;-70
2022/06/14 04:03:27;;;;;;;6.62;3.62;;;;;;;15.47;61.55;100183.53;7657368;32;38206;-70
2022/06/14 04:07:57;;;;;;;10.25;3.80;;;;;;;15.33;62.50;100200.75;7644378;32;36877;-70
2022/06/14 04:12:32;;;;;;;7.28;3.85;;;;;;;15.65;61.44;100199.25;7643966;32;40032;-70
2022/06/14 04:16:54;;;;;;;7.28;4.25;;;;;;;15.52;62.88;100202.69;7656213;32;40795;-70
2022/06/14 04:21:41;;;;;;;7.72;4.10;;;;;;;15.54;63.18;100206.00;7656837;32;38727;-69
2022/06/14 04:26:27;;;;;;;8.40;4.00;;;;;;;15.71;63.22;100203.56;7656665;32;37573;-70
2022/06/14 04:31:15;;;;;;;8.95;3.72;;;;;;;15.94;62.98;100209.31;7644199;32;39276;-70
2022/06/14 04:35:38;;;;;;;8.30;4.15;;;;;;;16.11;62.59;100225.28;7644919;32;39668;-70
2022/06/14 04:40:12;;;;;;;9.70;4.85;;;;;;;15.96;63.75;100231.81;7642614;32;38084;-70
2022/06/14 04:44:37;;;;;;;8.07;4.20;;;;;;;16.23;62.61;100233.06;7642586;32;37718;-70
2022/06/14 04:49:01;;;;;;;8.65;4.18;;;;;;;16.22;62.79;100239.72;7642891;32;40025;-69
2022/06/14 04:53:25;;;;;;;10.70;4.10;;;;;;;16.22;62.64;100236.94;7655925;32;39782;-70
2022/06/14 04:57:51;;;;;;;9.57;4.05;;;;;;;16.39;62.53;100256.50;7644158;32;38596;-69
2022/06/14 05:02:14;;;;;;;8.95;3.75;;;;;;;16.69;61.07;100255.19;7646677;32;37054;-69
2022/06/14 05:06:42;;;;;;;11.93;4.33;;;;;;;16.32;62.25;100259.62;7646729;32;40196;-70
2022/06/14 05:11:34;;;;;;;11.10;4.07;;;;;;;16.33;61.48;100261.25;7646341;32;40790;-69
2022/06/14 05:15:57;;;;;;;9.73;4.30;;;;;;;16.29;61.78;100265.72;7658858;32;38683;-68
2022/06/14 05:20:31;;;;;;;10.85;4.78;;;;;;;16.08;61.94;100270.69;7659449;32;38020;-70
2022/06/14 05:24:48;;;;;;;11.80;4.32;;;;;;;16.08;62.09;100265.19;7659512;32;40068;-69
2022/06/14 05:29:25;;;;;;;6.37;3.67;;;;;;;16.43;61.62;100273.22;7645897;32;40175;-69
2022/06/14 05:33:54;;;;;;;8.35;4.10;;;;;;;16.78;60.22;100271.00;7659245;32;37920;-76
2022/06/14 05:38:32;;;;;;;8.55;4.12;;;;;;;16.73;61.51;100266.41;7646855;32;37101;-77
2022/06/14 05:43:04;;;;;;;6.30;3.75;;;;;;;17.00;61.61;100278.63;7659319;32;40072;-77
2022/06/14 05:47:37;;;;;;;6.47;3.70;;;;;;;16.83;60.19;100273.66;7657625;32;40728;-76
2022/06/14 05:52:10;;;;;;;8.15;3.97;;;;;;;17.41;58.22;100272.34;7632745;32;38110;-71
2022/06/14 05:56:50;;;;;;;8.98;3.40;;;;;;;17.37;59.27;100276.84;7639806;32;37020;-72
2022/06/14 06:01:13;;;;;;;8.55;3.95;;;;;;;17.40;57.91;100281.72;7647857;32;39322;-71
2022/06/14 06:05:39;;;;;;;7.82;3.37;;;;;;;17.72;58.61;100277.25;7658658;32;39767;-72
2022/06/14 06:10:01;;;;;;;7.65;4.07;;;;;;;17.99;57.88;100280.00;7644099;32;38883;-71
2022/06/14 06:14:36;;;;;;;6.05;3.58;;;;;;;17.88;56.76;100280.53;7644714;32;36129;-71
2022/06/14 06:18:55;;;;;;;9.68;3.90;;;;;;;17.73;57.27;100287.13;7647143;32;39303;-71
2022/06/14 06:23:16;;;;;;;6.47;3.53;;;;;;;17.80;58.57;100291.13;7632773;32;38976;-72
2022/06/14 06:27:47;;;;;;;13.90;3.62;;;;;;;17.89;58.73;100298.72;7643920;32;38071;-72
2022/06/14 06:32:05;;;;;;;6.15;3.62;;;;;;;17.63;57.96;100302.78;7642439;32;37182;-72
2022/06/14 06:36:31;;;;;;;8.85;4.03;;;;;;;17.36;58.60;100309.09;7655401;32;38263;-71
2022/06/14 06:45:30;;;;;;;6.62;3.17;;;;;;;17.74;57.70;100303.38;7645828;32;37515;-71
2022/06/14 06:49:56;;;;;;;7.60;3.53;;;;;;;18.44;56.82;100301.34;7657431;32;37235;-72
2022/06/14 06:54:39;;;;;;;7.20;3.00;;;;;;;18.50;55.09;100304.78;7658354;32;39276;-76
2022/06/14 06:59:14;;;;;;;8.63;3.12;;;;;;;18.35;55.48;100306.78;7626978;32;39829;-76
2022/06/14 07:03:42;;;;;;;9.40;3.25;;;;;;;18.44;55.07;100308.78;7645386;32;38795;-73
2022/06/14 07:08:33;;;;;;;6.90;3.00;;;;;;;18.20;56.46;100310.69;7657463;32;37250;-73
2022/06/14 07:13:24;;;;;;;10.38;3.42;;;;;;;18.84;55.25;100306.22;7642990;32;38985;-71
2022/06/14 07:17:45;;;;;;;8.40;3.33;;;;;;;18.68;54.96;100309.31;7640145;32;40069;-72
2022/06/14 07:22:22;;;;;;;8.98;4.00;;;;;;;18.83;54.71;100305.37;7633129;32;37874;-71
2022/06/14 07:26:58;;;;;;;7.07;3.10;;;;;;;19.13;52.95;100308.50;7656865;32;36976;-73
2022/06/14 07:31:34;;;;;;;3.87;2.80;;;;;;;19.21;53.32;100295.84;7645724;32;39401;-73
2022/06/14 07:35:56;;;;;;;5.60;3.20;;;;;;;19.19;52.41;100295.34;7657434;32;40909;-71
2022/06/14 07:40:20;;;;;;;6.15;3.15;;;;;;;18.86;54.58;100298.41;7657269;32;37756;-73
2022/06/14 07:44:50;;;;;;;7.75;3.03;;;;;;;19.64;53.44;100293.25;7657443;32;37217;-73
2022/06/14 07:49:25;;;;;;;5.95;2.65;;;;;;;19.42;52.54;100299.69;7645222;32;39477;-74
2022/06/14 07:54:10;;;;;;;10.48;3.03;;;;;;;19.73;50.49;100296.06;7654898;32;40791;-74
2022/06/14 07:58:50;;;;;;;6.22;2.97;;;;;;;19.74;50.40;100294.94;7655162;32;37657;-74
2022/06/14 08:03:30;;;;;;;8.40;3.08;;;;;;;19.59;51.65;100298.94;7656494;32;37899;-74
2022/06/14 08:07:48;;;;;;;7.97;2.72;;;;;;;20.23;49.15;100284.63;7656863;32;40121;-74
2022/06/14 08:12:14;;;;;;;7.10;2.90;;;;;;;20.83;46.29;100282.16;7643990;32;40203;-74
2022/06/14 08:16:30;;;;;;;9.50;2.75;;;;;;;21.28;45.83;100290.00;7656772;32;38109;-74
2022/06/14 08:21:40;;;;;;;8.18;2.42;;;;;;;21.35;44.08;100289.50;7643453;32;36972;-75
2022/06/14 08:26:08;;;;;;;4.40;2.40;;;;;;;21.43;44.65;100293.41;7638279;32;39281;-75
2022/06/14 08:30:30;;;;;;;6.62;2.67;;;;;;;21.14;45.02;100294.97;7644155;32;38087;-74
2022/06/14 08:35:06;;;;;;;9.75;2.70;;;;;;;20.72;44.71;100286.41;7646259;32;38202;-74
2022/06/14 08:39:36;;;;;;;5.90;2.33;;;;;;;21.14;44.08;100287.44;7660056;32;37861;-74
2022/06/14 08:44:03;;;;;;;7.43;2.92;;;;;;;21.49;43.98;100289.31;7646867;32;39283;-74
2022/06/14 08:48:19;;;;;;;7.20;2.40;;;;;;;21.27;42.49;100288.41;7647415;32;39709;-74
2022/06/14 08:53:13;;;;;;;7.15;2.28;;;;;;;21.90;42.75;100287.78;7659836;32;38006;-74
2022/06/14 08:57:41;;;;;;;4.10;1.80;;;;;;;21.65;37.36;100282.06;7648408;32;37006;-75
2022/06/14 09:02:15;;;;;;;8.13;2.25;;;;;;;22.18;39.77;100278.94;7659743;32;40296;-75
2022/06/14 09:07:09;;;;;;;11.15;2.25;;;;;;;22.45;38.31;100270.06;7659592;32;40504;-74
2022/06/14 09:11:59;;;;;;;4.65;2.35;;;;;;;22.78;38.27;100272.06;7659501;32;38107;-74
2022/06/14 09:16:25;;;;;;;6.40;1.98;;;;;;;23.15;37.29;100271.37;7659561;32;37145;-74
2022/06/14 09:21:10;;;;;;;7.10;2.12;;;;;;;22.61;37.03;100272.22;7659460;32;39238;-75
2022/06/14 09:25:40;;;;;;;7.57;2.10;;;;;;;22.54;39.22;100266.41;7659743;32;39854;-74
2022/06/14 09:30:34;;;;;;;4.30;2.35;;;;;;;22.85;35.10;100272.34;7659457;32;38027;-74
2022/06/14 09:35:08;;;;;;;5.05;2.20;;;;;;;23.73;37.33;100263.75;7659241;32;37149;-74
2022/06/14 09:39:24;;;;;;;9.23;2.15;;;;;;;23.40;36.81;100256.34;7659408;32;39224;-74
2022/06/14 09:44:19;;;;;;;3.50;1.58;;;;;;;23.26;35.76;100247.50;7658234;32;40610;-74
2022/06/14 09:49:08;;;;;;;7.85;2.30;;;;;;;23.76;35.65;100243.53;7635615;32;38014;-74
2022/06/14 09:54:04;;;;;;;4.32;1.83;;;;;;;23.79;31.28;100242.84;7646668;32;38068;-74
2022/06/14 09:58:28;;;;;;;3.60;1.62;;;;;;;23.30;31.38;100244.84;7659236;32;40119;-74
2022/06/14 10:03:03;;;;;;;11.30;5.22;;;;;;;24.07;28.85;100239.34;7659036;32;39850;-75
2022/06/14 10:07:41;;;;;;;9.77;2.50;;;;;;;23.60;29.71;100240.66;7658984;32;38030;-75
2022/06/14 10:12:18;;;;;;;4.20;2.20;;;;;;;23.97;31.15;100232.31;7658862;32;37163;-75
2022/06/14 10:16:48;;;;;;;2.37;1.52;;;;;;;24.68;28.63;100220.78;7658982;32;39468;-75
2022/06/14 10:21:04;;;;;;;2.83;1.75;;;;;;;24.79;27.91;100227.47;7658830;32;40825;-75
2022/06/14 10:25:26;;;;;;;4.75;1.87;;;;;;;24.81;27.78;100224.31;7658725;32;38040;-75
2022/06/14 10:29:57;;;;;;;3.00;1.63;;;;;;;24.64;26.52;100222.66;7658880;32;36988;-74
2022/06/14 10:34:23;;;;;;;3.15;1.80;;;;;;;24.63;28.30;100235.81;7658919;32;39329;-75
2022/06/14 10:38:54;;;;;;;5.53;1.58;;;;;;;25.00;26.27;100221.62;7658738;32;40646;-75
2022/06/14 10:43:34;;;;;;;5.05;1.52;;;;;;;25.67;25.93;100216.09;7658627;32;37876;-75
2022/06/14 10:48:10;;;;;;;6.53;2.17;;;;;;;25.93;24.40;100216.66;7658626;32;36833;-75
2022/06/14 10:52:44;;;;;;;5.10;1.90;;;;;;;25.77;26.75;100217.53;7658490;32;39432;-75
2022/06/14 10:57:06;;;;;;;3.95;1.60;;;;;;;25.68;26.15;100216.91;7658056;32;40799;-74
2022/06/14 11:01:56;;;;;;;10.83;1.73;;;;;;;25.01;27.47;100208.47;7658441;32;38082;-74
2022/06/14 11:06:19;;;;;;;5.07;1.65;;;;;;;24.18;27.34;100209.84;7658520;32;37005;-74
2022/06/14 11:10:53;;;;;;;4.10;1.80;;;;;;;23.55;28.91;100210.28;7658032;32;39062;-75
2022/06/14 11:15:22;;;;;;;3.45;1.98;;;;;;;23.59;29.68;100214.03;7645415;32;40766;-75
2022/06/14 11:19:52;;;;;;;6.87;2.37;;;;;;;23.75;28.76;100207.72;7645103;32;38019;-75
2022/06/14 11:24:14;;;;;;;3.67;1.65;;;;;;;23.70;29.71;100221.88;7658188;32;37397;-75
2022/06/14 11:28:59;;;;;;;8.20;1.90;;;;;;;23.55;29.73;100215.88;7658020;32;39476;-75
2022/06/14 11:33:15;;;;;;;4.22;2.00;;;;;;;24.40;30.29;100204.06;7653658;32;41064;-74
2022/06/14 11:38:13;;;;;;;4.18;1.77;;;;;;;24.74;28.03;100213.78;7657730;32;37943;-74
2022/06/14 11:42:42;;;;;;;3.50;1.58;;;;;;;25.19;26.63;100206.16;7631245;32;36763;-74
2022/06/14 11:47:30;;;;;;;4.07;1.80;;;;;;;25.06;28.15;100202.63;7645614;32;39810;-75
2022/06/14 11:52:23;;;;;;;2.58;1.55;;;;;;;24.67;27.80;100208.81;7647749;32;39835;-75
2022/06/14 11:56:45;;;;;;;3.97;1.83;;;;;;;25.32;26.43;100201.31;7657250;32;38700;-75
2022/06/14 12:01:04;;;;;;;8.27;1.97;;;;;;;25.07;27.93;100207.84;7657386;32;37229;-75
2022/06/14 12:05:50;;;;;;;3.92;1.58;;;;;;;24.95;27.35;100202.38;7656994;32;39520;-75
2022/06/14 12:10:25;;;;;;;3.17;1.58;;;;;;;25.95;25.69;100211.56;7656498;32;40100;-75
2022/06/14 12:15:01;;;;;;;5.35;1.62;;;;;;;25.61;24.67;100197.19;7660134;32;37777;-75
2022/06/14 12:19:28;;;;;;;4.20;1.50;;;;;;;26.03;24.57;100196.56;7647200;32;37697;-75
2022/06/14 12:23:50;;;;;;;4.18;1.62;;;;;;;25.93;24.39;100186.75;7660470;32;39333;-75
2022/06/14 12:28:43;;;;;;;4.15;1.83;;;;;;;25.00;26.75;100190.16;7646888;32;39991;-75
2022/06/14 12:33:22;;;;;;;2.90;1.75;;;;;;;24.98;26.91;100193.28;7636345;32;37916;-75
2022/06/14 12:37:54;;;;;;;2.65;1.52;;;;;;;24.77;29.30;100189.94;7648915;32;37800;-75
2022/06/14 12:42:18;;;;;;;8.57;1.85;;;;;;;24.79;29.03;100188.44;7660086;32;39239;-74
2022/06/14 12:46:39;;;;;;;4.75;1.85;;;;;;;25.43;27.21;100182.84;7634070;32;40705;-74
2022/06/14 12:51:01;;;;;;;5.82;1.90;;;;;;;24.37;28.27;100192.47;7646731;32;37952;-73
2022/06/14 12:55:26;;;;;;;4.05;1.70;;;;;;;23.94;28.60;100190.41;7646719;32;37252;-72
2022/06/14 12:59:51;;;;;;;3.05;1.75;;;;;;;24.68;27.91;100179.78;7647084;32;39966;-73
2022/06/14 13:04:17;;;;;;;5.18;1.50;;;;;;;24.47;28.30;100173.59;7659583;32;38864;-73
2022/06/14 13:09:07;;;;;;;3.80;1.87;;;;;;;24.54;28.32;100171.88;7659571;32;38746;-73
2022/06/14 13:13:45;;;;;;;5.72;1.87;;;;;;;23.91;29.88;100183.59;7647169;32;36728;-73
2022/06/14 13:18:24;;;;;;;3.78;1.60;;;;;;;24.03;29.74;100173.59;7659408;32;39459;-73
2022/06/14 13:23:21;;;;;;;2.30;1.60;;;;;;;25.09;28.72;100155.34;7647221;32;40886;-74
2022/06/14 13:27:43;;;;;;;2.28;1.10;;;;;;;25.96;26.63;100143.34;7659468;32;38634;-73
2022/06/14 13:32:32;;;;;;;2.90;1.55;;;;;;;26.64;26.00;100149.47;7659537;32;36857;-73
2022/06/14 13:37:19;;;;;;;2.22;1.20;;;;;;;26.34;26.54;100153.69;7647696;32;40099;-74
2022/06/14 13:42:00;;;;;;;2.58;1.10;;;;;;;26.42;24.68;100149.03;7659278;32;40583;-74
2022/06/14 13:46:34;;;;;;;4.97;1.50;;;;;;;27.25;22.61;100144.84;7659181;32;38942;-72
2022/06/14 13:51:23;;;;;;;1.75;1.20;;;;;;;25.58;24.68;100151.31;7659314;32;35997;-72
2022/06/14 13:55:53;;;;;;;2.65;1.10;;;;;;;25.97;26.35;100144.97;7633209;32;38999;-73
2022/06/14 14:00:32;;;;;;;2.67;1.30;;;;;;;26.49;24.04;100132.41;7646350;32;40698;-73
2022/06/14 14:05:02;;;;;;;3.62;1.30;;;;;;;26.32;25.40;100144.03;7658962;32;38814;-72
2022/06/14 14:09:21;;;;;;;2.40;1.23;;;;;;;26.36;25.93;100140.12;7658941;32;37897;-73
2022/06/14 14:13:43;;;;;;;4.57;1.25;;;;;;;25.93;26.78;100144.06;7658776;32;39107;-73
2022/06/14 14:18:09;;;;;;;3.83;1.60;;;;;;;26.93;25.12;100137.56;7645871;32;39978;-73
2022/06/14 14:23:02;;;;;;;7.55;1.85;;;;;;;26.95;23.94;100131.59;7658522;32;38848;-73
2022/06/14 14:27:24;;;;;;;2.87;1.27;;;;;;;27.17;24.33;100138.34;7635097;32;38080;-73
2022/06/14 14:32:20;;;;;;;2.43;1.30;;;;;;;27.23;22.91;100136.03;7657622;32;39652;-73
2022/06/14 14:37:01;;;;;;;2.00;1.42;;;;;;;26.63;24.32;100131.06;7658546;32;39930;-73
2022/06/14 14:41:43;;;;;;;4.28;1.45;;;;;;;26.80;24.53;100124.94;7658553;32;37734;-72
2022/06/14 14:46:12;;;;;;;2.70;1.27;;;;;;;26.91;23.13;100125.94;7646155;32;35202;-73
2022/06/14 14:50:38;;;;;;;3.55;1.10;;;;;;;26.78;24.55;100124.53;7658589;32;39304;-74
2022/06/14 14:55:21;;;;;;;5.70;1.02;;;;;;;26.39;25.81;100124.63;7658424;32;40817;-74
2022/06/14 14:59:50;;;;;;;5.72;1.20;;;;;;;27.14;24.01;100117.50;7646882;32;37879;-74
2022/06/14 15:08:52;;;;;;;1.42;0.73;;;;;;;25.28;24.12;100115.56;7658242;32;40178;-74
2022/06/14 15:13:09;;;;;;;6.53;1.20;;;;;;;26.45;24.78;100117.53;7658046;32;40935;-74
2022/06/14 15:22:21;;;;;;;1.83;1.00;;;;;;;27.23;23.71;100091.25;7630995;32;36892;-72
2022/06/14 15:26:40;;;;;;;3.67;1.08;;;;;;;27.31;22.47;100096.59;7658186;32;39240;-73
2022/06/14 15:30:59;;;;;;;1.85;0.93;;;;;;;27.53;21.78;100102.50;7632447;32;39927;-73
2022/06/14 15:35:24;;;;;;;3.25;0.88;;;;;;;27.48;22.04;100102.84;7657777;32;36984;-74
2022/06/14 15:40:03;;;;;;;4.82;1.00;;;;;;;27.17;20.10;100108.37;7644801;32;37023;-75
2022/06/14 15:44:31;;;;;;;3.83;1.00;;;;;;;26.83;22.92;100101.84;7657709;32;39987;-73
2022/06/14 15:48:57;;;;;;;2.37;1.02;;;;;;;26.61;22.88;100098.66;7657507;32;39441;-73
2022/06/14 15:53:39;;;;;;;2.53;1.17;;;;;;;26.65;22.27;100092.34;7633341;32;37911;-75
2022/06/14 15:57:58;;;;;;;2.92;1.10;;;;;;;26.32;23.89;100093.72;7611547;32;37778;-75
2022/06/14 16:02:39;;;;;;;4.62;1.25;;;;;;;26.55;24.46;100100.16;7630471;32;40160;-75
2022/06/14 16:07:11;;;;;;;3.33;0.80;;;;;;;26.76;22.96;100090.53;7618049;32;39756;-75
2022/06/14 16:11:28;;;;;;;0.75;0.70;;;;;;;26.86;22.11;100091.91;7630269;32;37944;-75
2022/06/14 16:15:49;;;;;;;8.80;1.05;;;;;;;26.78;23.17;100088.97;7617054;32;36984;-75
2022/06/14 16:20:28;;;;;;;2.95;0.85;;;;;;;26.71;23.77;100086.06;7630332;32;40518;-75
2022/06/14 16:24:47;;;;;;;1.20;0.95;;;;;;;26.82;23.49;100089.06;7629911;32;40162;-75
2022/06/14 16:29:06;;;;;;;5.05;1.15;;;;;;;26.91;22.03;100089.59;7630089;32;37745;-76
2022/06/14 16:34:00;;;;;;;1.52;0.98;;;;;;;26.65;22.89;100090.38;7629838;32;37177;-75
2022/06/14 16:38:19;;;;;;;2.40;0.73;;;;;;;26.34;24.06;100091.41;7606625;32;39231;-75
2022/06/14 16:42:51;;;;;;;2.90;0.93;;;;;;;26.41;24.10;100085.94;7629145;32;39917;-75
2022/06/14 16:47:32;;;;;;;2.03;1.05;;;;;;;26.40;23.33;100079.50;7629835;32;39217;-76
2022/06/14 16:51:58;;;;;;;3.92;0.88;;;;;;;25.94;23.80;100089.78;7617686;32;37148;-75
2022/06/14 16:56:21;;;;;;;7.62;1.00;;;;;;;25.74;24.27;100092.59;7632817;32;40058;-76
2022/06/14 17:00:42;;;;;;;3.70;1.23;;;;;;;25.70;24.53;100088.94;7633381;32;40642;-75
2022/06/14 17:05:28;;;;;;;5.75;1.50;;;;;;;25.81;24.61;100087.16;7632800;32;38829;-76
2022/06/14 17:10:03;;;;;;;1.92;1.30;;;;;;;25.41;25.14;100081.94;7632988;32;37014;-75
2022/06/14 17:14:36;;;;;;;3.33;1.45;;;;;;;25.38;25.23;100079.88;7632450;32;39169;-75
2022/06/14 17:19:07;;;;;;;1.75;1.25;;;;;;;25.09;25.55;100096.75;7632907;32;40846;-75
2022/06/14 17:23:37;;;;;;;2.95;1.85;;;;;;;25.00;25.84;100096.12;7620670;32;37768;-75
2022/06/14 17:32:51;;;;;;;6.20;2.65;;;;;;;24.67;26.47;100090.97;7621766;32;40200;-76
2022/06/14 17:37:30;;;;;;;1152.10;518.28;;;;;;;24.81;27.30;100099.66;7620874;32;40489;-75
2022/06/14 17:42:08;;;;;;;609.78;265.98;;;;;;;24.32;27.35;100097.19;7620638;32;37902;-78
2022/06/14 17:46:33;;;;;;;1012.47;496.37;;;;;;;24.07;27.06;100096.50;7619090;32;37388;-76
2022/06/14 17:51:27;;;;;;;372.35;139.00;;;;;;;23.83;28.95;100109.38;7618773;32;39238;-75
2022/06/14 17:56:16;;;;;;;35.58;12.37;;;;;;;23.71;29.29;100110.19;7631322;32;40841;-75
2022/06/14 18:00:59;;;;;;;20.85;10.50;;;;;;;23.42;29.38;100105.75;7632370;32;38087;-74
2022/06/14 18:05:37;;;;;;;13.00;6.47;;;;;;;23.28;30.11;100111.69;7630961;32;37072;-75
2022/06/14 18:09:56;;;;;;;5.22;2.90;;;;;;;23.10;30.16;100113.91;7632096;32;40169;-76
2022/06/14 18:14:23;;;;;;;5.93;2.03;;;;;;;23.19;30.13;100120.16;7631186;32;40016;-75
2022/06/14 18:18:43;;;;;;;5.43;2.55;;;;;;;22.99;30.94;100119.09;7620037;32;37937;-76
2022/06/14 18:23:25;;;;;;;3.25;1.80;;;;;;;22.85;31.06;100124.19;7619357;32;37035;-76
2022/06/14 18:27:59;;;;;;;2.80;1.15;;;;;;;22.68;31.88;100116.91;7622497;32;247594;-75
2022/06/14 18:32:22;;;;;;;2.33;1.15;;;;;;;22.52;33.14;100122.28;7632425;32;39971;-76
2022/06/14 18:36:50;;;;;;;;;;;;;;;22.36;33.15;100127.69;7619914;32;37636;-76
2022/06/14 18:41:29;;;;;;;3.42;1.40;;;;;;;22.26;34.59;100128.09;7632626;32;36899;-77
2022/06/14 18:45:47;;;;;;;2.45;1.30;;;;;;;22.04;34.99;100130.12;7632324;32;39883;-76
2022/06/14 18:50:44;;;;;;;2.97;1.35;;;;;;;21.80;35.15;100127.22;7618922;32;40002;-78
2022/06/14 18:55:07;;;;;;;4.25;1.80;;;;;;;21.79;35.17;100136.72;7619126;32;38702;-76
2022/06/14 18:59:23;;;;;;;19.37;7.63;;;;;;;21.60;35.78;100145.50;7618945;32;37072;-74
2022/06/14 19:03:44;;;;;;;16.52;4.72;;;;;;;21.66;36.70;100153.31;7618761;32;39261;-74
2022/06/14 19:08:10;;;;;;;4.50;1.35;;;;;;;21.92;38.47;100141.16;7645590;32;39967;-73
2022/06/14 19:12:38;;;;;;;3.08;1.40;;;;;;;21.83;36.23;100148.75;7657727;32;38167;-74
2022/06/14 19:16:55;;;;;;;2.58;1.27;;;;;;;21.34;37.12;100154.78;7657440;32;37282;-73
2022/06/14 19:21:29;;;;;;;1.42;1.20;;;;;;;21.25;36.56;100162.31;7658272;32;39220;-73
2022/06/14 19:26:04;;;;;;;1.08;0.95;;;;;;;20.98;36.44;100161.66;7658121;32;40724;-73
2022/06/14 19:30:29;;;;;;;1.48;1.12;;;;;;;21.03;35.62;100171.75;7656884;32;38797;-73
2022/06/14 19:34:47;;;;;;;3.33;1.30;;;;;;;20.92;35.28;100166.56;7645263;32;36841;-74
2022/06/14 19:39:10;;;;;;;5.82;1.30;;;;;;;20.73;36.77;100168.91;7657082;32;39139;-75
2022/06/14 19:43:32;;;;;;;2.28;1.25;;;;;;;20.54;37.05;100172.87;7644471;32;39931;-73
2022/06/14 19:48:03;;;;;;;1.65;1.17;;;;;;;20.45;35.72;100169.28;7643438;32;37971;-74
2022/06/14 19:52:27;;;;;;;3.28;1.08;;;;;;;20.54;35.68;100172.87;7644454;32;36823;-74
2022/06/14 19:56:44;;;;;;;2.47;1.20;;;;;;;20.29;36.85;100174.53;7648538;32;39307;-73
2022/06/14 20:01:04;;;;;;;4.72;1.52;;;;;;;20.34;36.52;100179.91;7655948;32;40698;-74
2022/06/14 20:05:20;;;;;;;1.23;1.02;;;;;;;20.23;37.08;100179.44;7656815;32;37936;-74
2022/06/14 20:09:54;;;;;;;2.55;1.42;;;;;;;20.02;37.60;100183.97;7657142;32;37878;-74
2022/06/14 20:14:20;;;;;;;1.95;1.20;;;;;;;19.86;38.39;100186.44;7643756;32;39478;-73
2022/06/14 20:19:05;;;;;;;2.58;1.30;;;;;;;19.92;37.99;100178.78;7655997;32;40612;-74
2022/06/14 20:23:25;;;;;;;2.92;1.33;;;;;;;19.76;39.18;100184.78;7644433;32;38537;-74
2022/06/14 20:27:45;;;;;;;3.40;1.30;;;;;;;19.48;40.63;100185.03;7656073;32;38001;-74
2022/06/14 20:32:03;;;;;;;4.18;1.50;;;;;;;19.50;40.61;100181.97;7658988;32;39247;-75
2022/06/14 20:36:25;;;;;;;2.15;1.40;;;;;;;19.48;40.23;100181.47;7658373;32;39992;-74
2022/06/14 20:40:45;;;;;;;1.20;1.10;;;;;;;19.42;40.49;100175.28;7657789;32;37929;-75
2022/06/14 20:45:07;;;;;;;1.27;1.17;;;;;;;19.49;41.28;100183.09;7658394;32;37584;-74
2022/06/14 20:49:23;;;;;;;3.70;1.67;;;;;;;19.24;42.17;100184.66;7658555;32;38944;-74
2022/06/14 20:53:39;;;;;;;1.95;1.30;;;;;;;19.08;42.68;100189.81;7657073;32;40269;-74
2022/06/14 20:57:56;;;;;;;1.40;1.30;;;;;;;19.19;42.18;100196.66;7657496;32;37910;-74
2022/06/14 21:02:12;;;;;;;1.92;1.20;;;;;;;19.21;41.26;100202.69;7655229;32;37546;-74
2022/06/14 21:06:28;;;;;;;1.90;1.20;;;;;;;19.00;41.81;100201.62;7658013;32;39447;-75
2022/06/14 21:15:28;;;;;;;3.45;1.45;;;;;;;19.03;42.27;100193.53;7658686;32;38735;-74
2022/06/14 21:19:44;;;;;;;1.50;1.40;;;;;;;18.87;42.61;100211.66;7659130;32;37772;-74